Terminal Aerodrome Forecast
Issued by NWS Melbourne, FL

Home | Current Version | Previous Version | Text Only | Print | Product List | Glossary On
Versions: 1 2 3 4 5 6 7 8 9 10 11 12 13 14 15 16 17 18
000
FTUS42 KMLB 190500
TAFMLB
TAF
KMLB 190521Z 1906/2006 12006KT P6SM FEW029
     FM191300 06008KT P6SM VCSH SCT025 BKN070 BKN150
     FM191700 06010KT P6SM -SHRA SCT030 BKN050 OVC080
     FM200000 05008KT P6SM -SHRA BKN030=

USA.gov is the U.S. government's official web portal to all federal, state and local government web resources and services.